sensor_id;sensor_type;location;lat;lon;timestamp;pressure;altitude;pressure_sealevel;temperature;humidity
54900;BME280;40801;41.924;25.562;2022-11-20T00:00:24;99117.47;;;18.88;74.57
54900;BME280;40801;41.924;25.562;2022-11-20T00:02:49;99117.53;;;18.92;73.99
54900;BME280;40801;41.924;25.562;2022-11-20T00:05:15;99124.63;;;18.96;73.75
54900;BME280;40801;41.924;25.562;2022-11-20T00:07:40;99113.38;;;19.01;73.55
54900;BME280;40801;41.924;25.562;2022-11-20T00:10:06;99110.66;;;19.01;73.28
54900;BME280;40801;41.924;25.562;2022-11-20T00:12:31;99127.78;;;18.98;73.37
54900;BME280;40801;41.924;25.562;2022-11-20T00:14:57;99123.56;;;19.04;72.93
54900;BME280;40801;41.924;25.562;2022-11-20T00:17:22;99136.03;;;19.02;73.55
54900;BME280;40801;41.924;25.562;2022-11-20T00:19:48;99130.97;;;19.04;73.17
54900;BME280;40801;41.924;25.562;2022-11-20T00:22:13;99133.72;;;19.04;73.18
54900;BME280;40801;41.924;25.562;2022-11-20T00:24:39;99142.47;;;19.13;72.38
54900;BME280;40801;41.924;25.562;2022-11-20T00:27:04;99127.50;;;19.07;72.84
54900;BME280;40801;41.924;25.562;2022-11-20T00:29:30;99124.44;;;19.08;72.48
54900;BME280;40801;41.924;25.562;2022-11-20T00:31:55;99120.88;;;19.08;72.39
54900;BME280;40801;41.924;25.562;2022-11-20T00:34:20;99117.81;;;19.09;72.26
54900;BME280;40801;41.924;25.562;2022-11-20T00:36:46;99112.50;;;19.20;71.68
54900;BME280;40801;41.924;25.562;2022-11-20T00:39:11;99112.97;;;19.26;71.45
54900;BME280;40801;41.924;25.562;2022-11-20T00:41:37;99113.66;;;19.19;71.48
54900;BME280;40801;41.924;25.562;2022-11-20T00:44:02;99112.59;;;19.27;70.86
54900;BME280;40801;41.924;25.562;2022-11-20T00:46:28;99110.56;;;19.21;70.73
54900;BME280;40801;41.924;25.562;2022-11-20T00:48:53;99109.81;;;19.24;70.58
54900;BME280;40801;41.924;25.562;2022-11-20T00:51:21;99103.09;;;19.17;70.36
54900;BME280;40801;41.924;25.562;2022-11-20T00:53:46;99101.28;;;19.29;69.91
54900;BME280;40801;41.924;25.562;2022-11-20T00:56:14;99100.50;;;19.28;69.87
54900;BME280;40801;41.924;25.562;2022-11-20T00:58:42;99101.59;;;19.24;69.82
54900;BME280;40801;41.924;25.562;2022-11-20T01:01:28;99103.31;;;19.35;69.38
54900;BME280;40801;41.924;25.562;2022-11-20T01:03:58;99104.56;;;19.38;69.47
54900;BME280;40801;41.924;25.562;2022-11-20T01:06:27;99103.06;;;19.44;69.23
54900;BME280;40801;41.924;25.562;2022-11-20T01:08:58;99101.03;;;19.37;69.33
54900;BME280;40801;41.924;25.562;2022-11-20T01:11:29;99098.72;;;19.39;69.20
54900;BME280;40801;41.924;25.562;2022-11-20T01:13:56;99100.34;;;19.44;69.13
54900;BME280;40801;41.924;25.562;2022-11-20T01:16:28;99105.75;;;19.40;69.11
54900;BME280;40801;41.924;25.562;2022-11-20T01:18:56;99113.97;;;19.40;69.43
54900;BME280;40801;41.924;25.562;2022-11-20T01:23:52;99108.75;;;19.58;68.49
54900;BME280;40801;41.924;25.562;2022-11-20T01:26:29;99106.78;;;19.59;68.31
54900;BME280;40801;41.924;25.562;2022-11-20T01:28:56;99105.19;;;19.54;68.44
54900;BME280;40801;41.924;25.562;2022-11-20T01:31:23;99118.38;;;19.48;68.50
54900;BME280;40801;41.924;25.562;2022-11-20T01:33:50;99104.59;;;19.41;68.71
54900;BME280;40801;41.924;25.562;2022-11-20T01:36:18;99096.28;;;19.34;68.95
54900;BME280;40801;41.924;25.562;2022-11-20T01:38:43;99097.94;;;19.39;68.79
54900;BME280;40801;41.924;25.562;2022-11-20T01:41:10;99092.47;;;19.39;68.76
54900;BME280;40801;41.924;25.562;2022-11-20T01:43:56;99090.09;;;19.37;68.62
54900;BME280;40801;41.924;25.562;2022-11-20T01:46:22;99102.13;;;19.33;68.85
54900;BME280;40801;41.924;25.562;2022-11-20T01:51:26;99104.81;;;19.29;69.07
54900;BME280;40801;41.924;25.562;2022-11-20T01:53:55;99115.38;;;19.31;68.76
54900;BME280;40801;41.924;25.562;2022-11-20T01:56:23;99111.91;;;19.34;68.54
54900;BME280;40801;41.924;25.562;2022-11-20T01:58:54;99111.16;;;19.37;68.46
54900;BME280;40801;41.924;25.562;2022-11-20T02:01:22;99111.22;;;19.40;68.28
54900;BME280;40801;41.924;25.562;2022-11-20T02:03:48;99098.31;;;19.37;68.45
54900;BME280;40801;41.924;25.562;2022-11-20T02:06:26;99095.19;;;19.39;68.17
54900;BME280;40801;41.924;25.562;2022-11-20T02:08:53;99101.03;;;19.37;68.32
54900;BME280;40801;41.924;25.562;2022-11-20T02:11:20;99100.28;;;19.40;68.31
54900;BME280;40801;41.924;25.562;2022-11-20T02:13:46;99113.97;;;19.40;68.10
54900;BME280;40801;41.924;25.562;2022-11-20T02:16:21;99106.78;;;19.32;68.38
54900;BME280;40801;41.924;25.562;2022-11-20T02:18:47;99106.91;;;19.39;67.98
54900;BME280;40801;41.924;25.562;2022-11-20T02:21:34;99102.25;;;19.40;67.81
54900;BME280;40801;41.924;25.562;2022-11-20T02:26:31;99100.72;;;19.42;67.69
54900;BME280;40801;41.924;25.562;2022-11-20T02:28:58;99104.28;;;19.46;67.41
54900;BME280;40801;41.924;25.562;2022-11-20T02:31:26;99096.78;;;19.40;67.61
54900;BME280;40801;41.924;25.562;2022-11-20T02:33:56;99096.41;;;19.41;67.58
54900;BME280;40801;41.924;25.562;2022-11-20T02:36:22;99094.81;;;19.40;67.73
54900;BME280;40801;41.924;25.562;2022-11-20T02:38:49;99093.72;;;19.45;67.48
54900;BME280;40801;41.924;25.562;2022-11-20T02:41:15;99092.09;;;19.40;67.73
54900;BME280;40801;41.924;25.562;2022-11-20T02:43:40;99086.53;;;19.37;67.74
54900;BME280;40801;41.924;25.562;2022-11-20T02:46:07;99082.88;;;19.26;68.21
54900;BME280;40801;41.924;25.562;2022-11-20T02:48:32;99082.59;;;19.34;68.00
54900;BME280;40801;41.924;25.562;2022-11-20T02:50:58;99077.03;;;19.27;68.29
54900;BME280;40801;41.924;25.562;2022-11-20T02:53:23;99077.00;;;19.24;68.31
54900;BME280;40801;41.924;25.562;2022-11-20T02:55:49;99076.59;;;19.22;68.52
54900;BME280;40801;41.924;25.562;2022-11-20T02:58:14;99077.78;;;19.24;68.38
54900;BME280;40801;41.924;25.562;2022-11-20T03:00:39;99060.13;;;19.18;68.74
54900;BME280;40801;41.924;25.562;2022-11-20T03:03:05;99063.75;;;19.26;68.29
54900;BME280;40801;41.924;25.562;2022-11-20T03:05:30;99060.59;;;19.24;68.38
54900;BME280;40801;41.924;25.562;2022-11-20T03:07:56;99065.19;;;19.16;68.66
54900;BME280;40801;41.924;25.562;2022-11-20T03:10:21;99066.03;;;19.20;68.42
54900;BME280;40801;41.924;25.562;2022-11-20T03:12:46;99076.63;;;19.25;68.27
54900;BME280;40801;41.924;25.562;2022-11-20T03:15:12;99069.59;;;19.24;68.20
54900;BME280;40801;41.924;25.562;2022-11-20T03:17:37;99084.84;;;19.25;68.30
54900;BME280;40801;41.924;25.562;2022-11-20T03:20:03;99075.44;;;19.23;68.31
54900;BME280;40801;41.924;25.562;2022-11-20T03:22:29;99073.84;;;19.22;68.60
54900;BME280;40801;41.924;25.562;2022-11-20T03:24:55;99058.66;;;19.24;68.50
54900;BME280;40801;41.924;25.562;2022-11-20T03:27:20;99057.53;;;19.29;68.22
54900;BME280;40801;41.924;25.562;2022-11-20T03:29:46;99064.16;;;19.28;68.18
54900;BME280;40801;41.924;25.562;2022-11-20T03:32:11;99061.84;;;19.30;68.35
54900;BME280;40801;41.924;25.562;2022-11-20T03:34:36;99058.28;;;19.26;68.57
54900;BME280;40801;41.924;25.562;2022-11-20T03:37:02;99050.44;;;19.24;68.60
54900;BME280;40801;41.924;25.562;2022-11-20T03:39:27;99044.97;;;19.24;68.57
54900;BME280;40801;41.924;25.562;2022-11-20T03:41:53;99055.09;;;19.20;68.66
54900;BME280;40801;41.924;25.562;2022-11-20T03:44:21;99068.72;;;19.16;68.90
54900;BME280;40801;41.924;25.562;2022-11-20T03:46:46;99060.50;;;19.16;69.06
54900;BME280;40801;41.924;25.562;2022-11-20T03:49:12;99058.03;;;19.08;69.42
54900;BME280;40801;41.924;25.562;2022-11-20T03:51:37;99060.75;;;19.08;69.24
54900;BME280;40801;41.924;25.562;2022-11-20T03:54:05;99059.19;;;19.07;69.51
54900;BME280;40801;41.924;25.562;2022-11-20T03:56:34;99061.44;;;19.01;69.67
54900;BME280;40801;41.924;25.562;2022-11-20T03:58:59;99057.25;;;19.07;69.83
54900;BME280;40801;41.924;25.562;2022-11-20T04:01:27;99047.97;;;19.12;69.43
54900;BME280;40801;41.924;25.562;2022-11-20T04:03:54;99040.91;;;19.11;69.75
54900;BME280;40801;41.924;25.562;2022-11-20T04:06:26;99044.81;;;19.10;69.60
54900;BME280;40801;41.924;25.562;2022-11-20T04:08:54;99034.34;;;19.15;69.56
54900;BME280;40801;41.924;25.562;2022-11-20T04:13:55;99045.28;;;19.15;69.79
54900;BME280;40801;41.924;25.562;2022-11-20T04:16:23;99017.47;;;19.10;69.78
54900;BME280;40801;41.924;25.562;2022-11-20T04:18:56;99019.34;;;19.06;69.63
54900;BME280;40801;41.924;25.562;2022-11-20T04:21:23;99007.91;;;18.97;70.06
54900;BME280;40801;41.924;25.562;2022-11-20T04:23:49;99025.09;;;18.97;69.86
54900;BME280;40801;41.924;25.562;2022-11-20T04:26:14;99023.06;;;18.91;69.88
54900;BME280;40801;41.924;25.562;2022-11-20T04:28:40;99031.16;;;18.83;70.58
54900;BME280;40801;41.924;25.562;2022-11-20T04:31:11;99025.78;;;18.91;70.36
54900;BME280;40801;41.924;25.562;2022-11-20T04:33:38;99030.84;;;18.88;70.57
54900;BME280;40801;41.924;25.562;2022-11-20T04:36:06;99041.75;;;18.88;70.67
54900;BME280;40801;41.924;25.562;2022-11-20T04:38:31;99034.81;;;18.95;70.58
54900;BME280;40801;41.924;25.562;2022-11-20T04:40:59;99033.66;;;18.96;70.35
54900;BME280;40801;41.924;25.562;2022-11-20T04:43:25;99036.81;;;18.98;70.31
54900;BME280;40801;41.924;25.562;2022-11-20T04:45:54;99027.03;;;18.97;70.41
54900;BME280;40801;41.924;25.562;2022-11-20T04:48:19;99028.56;;;18.94;70.43
54900;BME280;40801;41.924;25.562;2022-11-20T04:50:45;99034.03;;;18.94;70.48
54900;BME280;40801;41.924;25.562;2022-11-20T04:53:10;99029.44;;;19.02;70.26
54900;BME280;40801;41.924;25.562;2022-11-20T04:55:36;99043.22;;;19.09;70.03
54900;BME280;40801;41.924;25.562;2022-11-20T04:58:01;99050.56;;;19.05;70.39
54900;BME280;40801;41.924;25.562;2022-11-20T05:00:27;99043.22;;;19.09;70.21
54900;BME280;40801;41.924;25.562;2022-11-20T05:02:52;99053.78;;;19.10;70.09
54900;BME280;40801;41.924;25.562;2022-11-20T05:05:17;99049.00;;;19.04;70.26
54900;BME280;40801;41.924;25.562;2022-11-20T05:07:43;99031.34;;;18.98;70.36
54900;BME280;40801;41.924;25.562;2022-11-20T05:10:08;99040.06;;;19.07;70.05
54900;BME280;40801;41.924;25.562;2022-11-20T05:12:34;99045.63;;;19.14;69.85
54900;BME280;40801;41.924;25.562;2022-11-20T05:14:59;99049.81;;;19.08;69.86
54900;BME280;40801;41.924;25.562;2022-11-20T05:17:25;99054.22;;;19.12;69.81
54900;BME280;40801;41.924;25.562;2022-11-20T05:19:50;99051.53;;;19.16;69.77
54900;BME280;40801;41.924;25.562;2022-11-20T05:22:15;99053.09;;;19.17;69.55
54900;BME280;40801;41.924;25.562;2022-11-20T05:24:41;99082.38;;;19.16;69.61
54900;BME280;40801;41.924;25.562;2022-11-20T05:27:06;99058.97;;;19.19;69.54
54900;BME280;40801;41.924;25.562;2022-11-20T05:29:32;99062.59;;;19.27;69.07
54900;BME280;40801;41.924;25.562;2022-11-20T05:31:57;99054.66;;;19.18;69.40
54900;BME280;40801;41.924;25.562;2022-11-20T05:34:22;99055.84;;;19.17;69.23
54900;BME280;40801;41.924;25.562;2022-11-20T05:36:48;99060.97;;;19.22;69.13
54900;BME280;40801;41.924;25.562;2022-11-20T05:39:13;99060.09;;;19.14;69.47
54900;BME280;40801;41.924;25.562;2022-11-20T05:41:39;99049.13;;;19.11;69.50
54900;BME280;40801;41.924;25.562;2022-11-20T05:44:04;99050.63;;;19.08;69.45
54900;BME280;40801;41.924;25.562;2022-11-20T05:46:29;99052.63;;;19.11;69.43
54900;BME280;40801;41.924;25.562;2022-11-20T05:48:56;99056.91;;;19.09;69.68
54900;BME280;40801;41.924;25.562;2022-11-20T05:51:22;99056.56;;;19.14;69.26
54900;BME280;40801;41.924;25.562;2022-11-20T05:53:48;99063.19;;;19.13;69.42
54900;BME280;40801;41.924;25.562;2022-11-20T05:56:16;99060.09;;;19.14;69.36
54900;BME280;40801;41.924;25.562;2022-11-20T05:58:42;99057.78;;;19.16;69.13
54900;BME280;40801;41.924;25.562;2022-11-20T06:03:39;99063.94;;;19.10;69.40
54900;BME280;40801;41.924;25.562;2022-11-20T06:06:06;99057.72;;;19.13;69.21
54900;BME280;40801;41.924;25.562;2022-11-20T06:08:32;99063.19;;;19.13;68.94
54900;BME280;40801;41.924;25.562;2022-11-20T06:10:58;99067.97;;;19.19;68.43
54900;BME280;40801;41.924;25.562;2022-11-20T06:13:24;99069.31;;;19.33;68.00
54900;BME280;40801;41.924;25.562;2022-11-20T06:15:51;99074.28;;;19.24;68.34
54900;BME280;40801;41.924;25.562;2022-11-20T06:18:17;99077.47;;;19.29;68.09
54900;BME280;40801;41.924;25.562;2022-11-20T06:20:43;99068.56;;;19.36;67.95
54900;BME280;40801;41.924;25.562;2022-11-20T06:23:08;99076.84;;;19.39;67.72
54900;BME280;40801;41.924;25.562;2022-11-20T06:25:37;99076.69;;;19.29;68.08
54900;BME280;40801;41.924;25.562;2022-11-20T06:28:03;99082.22;;;19.36;67.88
54900;BME280;40801;41.924;25.562;2022-11-20T06:30:29;99085.03;;;19.39;67.66
54900;BME280;40801;41.924;25.562;2022-11-20T06:32:54;99076.50;;;19.44;67.46
54900;BME280;40801;41.924;25.562;2022-11-20T06:35:19;99088.69;;;19.50;67.47
54900;BME280;40801;41.924;25.562;2022-11-20T06:37:45;99089.47;;;19.51;67.40
54900;BME280;40801;41.924;25.562;2022-11-20T06:40:11;99079.06;;;19.60;66.98
54900;BME280;40801;41.924;25.562;2022-11-20T06:42:36;99100.91;;;19.57;67.22
54900;BME280;40801;41.924;25.562;2022-11-20T06:45:02;99092.69;;;19.57;67.25
54900;BME280;40801;41.924;25.562;2022-11-20T06:47:27;99101.00;;;19.64;67.08
54900;BME280;40801;41.924;25.562;2022-11-20T06:49:53;99104.97;;;19.66;67.08
54900;BME280;40801;41.924;25.562;2022-11-20T06:52:18;99101.06;;;19.67;66.81
54900;BME280;40801;41.924;25.562;2022-11-20T06:54:44;99102.25;;;19.70;67.00
54900;BME280;40801;41.924;25.562;2022-11-20T06:57:09;99112.03;;;19.71;66.85
54900;BME280;40801;41.924;25.562;2022-11-20T06:59:34;99109.34;;;19.74;66.49
54900;BME280;40801;41.924;25.562;2022-11-20T07:02:00;99114.06;;;19.77;66.28
54900;BME280;40801;41.924;25.562;2022-11-20T07:04:25;99109.03;;;19.79;66.31
54900;BME280;40801;41.924;25.562;2022-11-20T07:06:51;99109.84;;;19.84;65.79
54900;BME280;40801;41.924;25.562;2022-11-20T07:09:16;99113.41;;;19.88;66.14
54900;BME280;40801;41.924;25.562;2022-11-20T07:11:41;99125.25;;;19.95;65.54
54900;BME280;40801;41.924;25.562;2022-11-20T07:14:07;99116.66;;;19.97;65.56
54900;BME280;40801;41.924;25.562;2022-11-20T07:16:32;99124.09;;;19.96;65.68
54900;BME280;40801;41.924;25.562;2022-11-20T07:18:58;99120.97;;;19.98;65.49
54900;BME280;40801;41.924;25.562;2022-11-20T07:21:23;99119.81;;;19.99;65.41
54900;BME280;40801;41.924;25.562;2022-11-20T07:23:48;99114.41;;;20.06;65.27
54900;BME280;40801;41.924;25.562;2022-11-20T07:26:14;99114.84;;;20.11;65.30
54900;BME280;40801;41.924;25.562;2022-11-20T07:28:39;99114.03;;;20.07;65.28
54900;BME280;40801;41.924;25.562;2022-11-20T07:31:05;99119.97;;;20.13;65.03
54900;BME280;40801;41.924;25.562;2022-11-20T07:33:32;99120.38;;;20.15;64.79
54900;BME280;40801;41.924;25.562;2022-11-20T07:36:01;99120.38;;;20.15;64.78
54900;BME280;40801;41.924;25.562;2022-11-20T07:38:27;99125.09;;;20.18;64.93
54900;BME280;40801;41.924;25.562;2022-11-20T07:40:58;99119.63;;;20.18;64.58
54900;BME280;40801;41.924;25.562;2022-11-20T07:43:26;99115.81;;;20.26;64.48
54900;BME280;40801;41.924;25.562;2022-11-20T07:45:55;99121.28;;;20.26;64.35
54900;BME280;40801;41.924;25.562;2022-11-20T07:48:21;99121.72;;;20.32;64.06
54900;BME280;40801;41.924;25.562;2022-11-20T07:50:46;99118.97;;;20.28;63.92
54900;BME280;40801;41.924;25.562;2022-11-20T07:53:12;99116.75;;;20.41;63.45
54900;BME280;40801;41.924;25.562;2022-11-20T07:55:39;99112.78;;;20.38;63.57
54900;BME280;40801;41.924;25.562;2022-11-20T07:58:04;99107.75;;;20.40;63.60
54900;BME280;40801;41.924;25.562;2022-11-20T08:00:30;99112.06;;;20.41;63.62
54900;BME280;40801;41.924;25.562;2022-11-20T08:02:55;99116.81;;;20.48;63.31
54900;BME280;40801;41.924;25.562;2022-11-20T08:05:21;99108.22;;;20.50;63.39
54900;BME280;40801;41.924;25.562;2022-11-20T08:07:46;99107.53;;;20.56;63.13
54900;BME280;40801;41.924;25.562;2022-11-20T08:10:14;99110.69;;;20.62;62.73
54900;BME280;40801;41.924;25.562;2022-11-20T08:12:46;99118.16;;;20.65;62.75
54900;BME280;40801;41.924;25.562;2022-11-20T08:15:30;99113.47;;;20.65;62.35
54900;BME280;40801;41.924;25.562;2022-11-20T08:18:09;99118.94;;;20.65;61.92
54900;BME280;40801;41.924;25.562;2022-11-20T08:20:36;99131.06;;;20.64;62.33
54900;BME280;40801;41.924;25.562;2022-11-20T08:23:04;99133.88;;;20.71;61.96
54900;BME280;40801;41.924;25.562;2022-11-20T08:25:31;99115.97;;;20.85;61.28
54900;BME280;40801;41.924;25.562;2022-11-20T08:28:01;99113.25;;;20.85;61.35
54900;BME280;40801;41.924;25.562;2022-11-20T08:30:27;99116.28;;;20.76;61.56
54900;BME280;40801;41.924;25.562;2022-11-20T08:32:54;99109.25;;;20.79;61.18
54900;BME280;40801;41.924;25.562;2022-11-20T08:35:20;99113.13;;;20.74;61.08
54900;BME280;40801;41.924;25.562;2022-11-20T08:37:46;99096.78;;;20.85;60.76
54900;BME280;40801;41.924;25.562;2022-11-20T08:40:12;99074.88;;;20.85;60.83
54900;BME280;40801;41.924;25.562;2022-11-20T08:42:46;99074.47;;;20.86;60.65
54900;BME280;40801;41.924;25.562;2022-11-20T08:45:11;99070.97;;;20.89;61.02
54900;BME280;40801;41.924;25.562;2022-11-20T08:47:37;99063.53;;;20.90;60.58
54900;BME280;40801;41.924;25.562;2022-11-20T08:50:02;99052.88;;;20.81;60.83
54900;BME280;40801;41.924;25.562;2022-11-20T08:52:28;99048.66;;;20.91;60.63
54900;BME280;40801;41.924;25.562;2022-11-20T08:54:53;99057.66;;;20.91;60.45
54900;BME280;40801;41.924;25.562;2022-11-20T08:57:19;99057.25;;;20.86;60.58
54900;BME280;40801;41.924;25.562;2022-11-20T08:59:44;99055.75;;;20.95;60.58
54900;BME280;40801;41.924;25.562;2022-11-20T09:02:10;99042.81;;;20.96;60.26
54900;BME280;40801;41.924;25.562;2022-11-20T09:04:35;99046.72;;;20.91;60.32
54900;BME280;40801;41.924;25.562;2022-11-20T09:07:00;99058.16;;;21.08;59.59
54900;BME280;40801;41.924;25.562;2022-11-20T09:09:26;99050.38;;;21.17;59.41
54900;BME280;40801;41.924;25.562;2022-11-20T09:11:51;99051.66;;;21.30;59.04
54900;BME280;40801;41.924;25.562;2022-11-20T09:14:17;99060.66;;;21.30;59.07
54900;BME280;40801;41.924;25.562;2022-11-20T09:16:44;99054.81;;;21.39;59.00
54900;BME280;40801;41.924;25.562;2022-11-20T09:19:10;99063.53;;;21.52;58.28
54900;BME280;40801;41.924;25.562;2022-11-20T09:21:35;99068.25;;;21.58;58.00
54900;BME280;40801;41.924;25.562;2022-11-20T09:24:01;99069.88;;;21.70;57.66
54900;BME280;40801;41.924;25.562;2022-11-20T09:26:26;99058.13;;;21.80;57.38
54900;BME280;40801;41.924;25.562;2022-11-20T09:28:51;99057.38;;;21.83;57.22
54900;BME280;40801;41.924;25.562;2022-11-20T09:31:26;99047.25;;;22.05;56.70
54900;BME280;40801;41.924;25.562;2022-11-20T09:33:52;99049.66;;;22.32;56.35
54900;BME280;40801;41.924;25.562;2022-11-20T09:36:17;99039.81;;;22.52;55.45
54900;BME280;40801;41.924;25.562;2022-11-20T09:38:46;99044.94;;;22.68;54.73
54900;BME280;40801;41.924;25.562;2022-11-20T09:44:10;99048.09;;;22.88;53.48
54900;BME280;40801;41.924;25.562;2022-11-20T09:52:01;99033.44;;;23.33;53.25
54900;BME280;40801;41.924;25.562;2022-11-20T09:54:33;99033.94;;;23.94;51.95
54900;BME280;40801;41.924;25.562;2022-11-20T09:57:04;99029.97;;;23.99;50.80
54900;BME280;40801;41.924;25.562;2022-11-20T10:02:30;99038.56;;;24.15;50.05
54900;BME280;40801;41.924;25.562;2022-11-20T10:05:09;99034.78;;;24.47;49.60
54900;BME280;40801;41.924;25.562;2022-11-20T10:07:51;99037.25;;;24.82;48.91
54900;BME280;40801;41.924;25.562;2022-11-20T10:10:33;99034.25;;;24.66;48.02
54900;BME280;40801;41.924;25.562;2022-11-20T10:15:59;99040.88;;;25.13;47.81
54900;BME280;40801;41.924;25.562;2022-11-20T10:29:19;99030.88;;;25.60;46.13
54900;BME280;40801;41.924;25.562;2022-11-20T10:32:03;99030.38;;;25.69;45.94
54900;BME280;40801;41.924;25.562;2022-11-20T10:34:40;99039.72;;;26.09;46.48
54900;BME280;40801;41.924;25.562;2022-11-20T10:37:16;99024.59;;;26.44;44.52
54900;BME280;40801;41.924;25.562;2022-11-20T10:42:26;99014.88;;;26.79;43.54
54900;BME280;40801;41.924;25.562;2022-11-20T10:45:09;99003.38;;;26.81;42.98
54900;BME280;40801;41.924;25.562;2022-11-20T10:47:39;99014.59;;;26.23;43.69
54900;BME280;40801;41.924;25.562;2022-11-20T10:50:08;99001.88;;;26.06;45.02
54900;BME280;40801;41.924;25.562;2022-11-20T10:55:33;99007.47;;;27.75;41.32
54900;BME280;40801;41.924;25.562;2022-11-20T10:58:10;98997.53;;;27.78;41.29
54900;BME280;40801;41.924;25.562;2022-11-20T11:00:37;98997.00;;;27.27;41.80
54900;BME280;40801;41.924;25.562;2022-11-20T11:03:02;98985.81;;;27.70;42.12
54900;BME280;40801;41.924;25.562;2022-11-20T11:05:45;98981.19;;;28.65;39.92
54900;BME280;40801;41.924;25.562;2022-11-20T11:08:15;98969.91;;;29.30;38.57
54900;BME280;40801;41.924;25.562;2022-11-20T11:13:24;98955.03;;;29.37;37.53
54900;BME280;40801;41.924;25.562;2022-11-20T11:15:50;98943.34;;;28.87;38.19
54900;BME280;40801;41.924;25.562;2022-11-20T11:18:27;98945.06;;;28.81;38.54
54900;BME280;40801;41.924;25.562;2022-11-20T11:20:54;98933.63;;;28.79;39.16
54900;BME280;40801;41.924;25.562;2022-11-20T11:23:32;98931.94;;;28.98;38.33
54900;BME280;40801;41.924;25.562;2022-11-20T11:25:59;98946.53;;;29.56;37.35
54900;BME280;40801;41.924;25.562;2022-11-20T11:28:26;98930.97;;;30.44;35.58
54900;BME280;40801;41.924;25.562;2022-11-20T11:30:53;98922.50;;;30.48;35.64
54900;BME280;40801;41.924;25.562;2022-11-20T11:33:23;98918.28;;;30.43;35.23
54900;BME280;40801;41.924;25.562;2022-11-20T11:35:50;98924.56;;;30.69;34.53
54900;BME280;40801;41.924;25.562;2022-11-20T11:38:32;98910.66;;;30.57;34.85
54900;BME280;40801;41.924;25.562;2022-11-20T11:40:59;98909.81;;;30.81;34.84
54900;BME280;40801;41.924;25.562;2022-11-20T11:43:28;98908.63;;;31.13;33.35
54900;BME280;40801;41.924;25.562;2022-11-20T11:46:32;98911.19;;;30.30;34.28
54900;BME280;40801;41.924;25.562;2022-11-20T11:49:11;98915.75;;;29.51;36.07
54900;BME280;40801;41.924;25.562;2022-11-20T11:54:23;98917.16;;;29.68;36.00
54900;BME280;40801;41.924;25.562;2022-11-20T11:56:50;98903.38;;;29.90;35.45
54900;BME280;40801;41.924;25.562;2022-11-20T12:00:10;98899.19;;;30.67;33.92
54900;BME280;40801;41.924;25.562;2022-11-20T12:02:31;98893.41;;;31.05;32.77
54900;BME280;40801;41.924;25.562;2022-11-20T12:05:01;98914.50;;;31.16;33.00
54900;BME280;40801;41.924;25.562;2022-11-20T12:07:51;98919.00;;;31.35;32.73
54900;BME280;40801;41.924;25.562;2022-11-20T12:15:57;98907.34;;;31.58;32.13
54900;BME280;40801;41.924;25.562;2022-11-20T12:18:23;98896.19;;;31.27;32.21
54900;BME280;40801;41.924;25.562;2022-11-20T12:26:17;98908.34;;;31.42;32.26
54900;BME280;40801;41.924;25.562;2022-11-20T12:34:17;98907.34;;;31.05;32.25
54900;BME280;40801;41.924;25.562;2022-11-20T12:36:50;98900.41;;;31.10;32.30
54900;BME280;40801;41.924;25.562;2022-11-20T12:39:41;98898.16;;;31.18;32.25
54900;BME280;40801;41.924;25.562;2022-11-20T12:42:36;98895.47;;;31.14;32.11
54900;BME280;40801;41.924;25.562;2022-11-20T12:48:51;98889.84;;;30.27;33.51
54900;BME280;40801;41.924;25.562;2022-11-20T12:51:48;98875.34;;;30.10;33.28
54900;BME280;40801;41.924;25.562;2022-11-20T12:57:09;98887.25;;;29.85;33.49
54900;BME280;40801;41.924;25.562;2022-11-20T13:00:01;98883.00;;;30.06;33.46
54900;BME280;40801;41.924;25.562;2022-11-20T13:07:54;98885.13;;;29.76;34.27
54900;BME280;40801;41.924;25.562;2022-11-20T13:10:26;98883.47;;;29.28;34.26
54900;BME280;40801;41.924;25.562;2022-11-20T13:16:05;98871.22;;;29.13;35.38
54900;BME280;40801;41.924;25.562;2022-11-20T13:18:40;98885.31;;;29.06;35.21
54900;BME280;40801;41.924;25.562;2022-11-20T13:21:21;98880.22;;;29.04;35.24
54900;BME280;40801;41.924;25.562;2022-11-20T13:23:47;98873.59;;;28.56;36.05
54900;BME280;40801;41.924;25.562;2022-11-20T13:26:23;98877.75;;;28.35;36.39
54900;BME280;40801;41.924;25.562;2022-11-20T13:29:09;98864.56;;;28.23;36.78
54900;BME280;40801;41.924;25.562;2022-11-20T13:31:40;98870.50;;;27.76;37.80
54900;BME280;40801;41.924;25.562;2022-11-20T13:34:12;98874.41;;;27.43;38.28
54900;BME280;40801;41.924;25.562;2022-11-20T13:36:49;98867.03;;;26.80;39.27
54900;BME280;40801;41.924;25.562;2022-11-20T13:39:28;98866.09;;;26.04;40.95
54900;BME280;40801;41.924;25.562;2022-11-20T13:41:59;98885.28;;;25.61;41.80
54900;BME280;40801;41.924;25.562;2022-11-20T13:44:38;98884.16;;;25.31;42.72
54900;BME280;40801;41.924;25.562;2022-11-20T13:47:23;98888.13;;;24.96;43.74
54900;BME280;40801;41.924;25.562;2022-11-20T13:49:51;98869.16;;;24.68;44.40
54900;BME280;40801;41.924;25.562;2022-11-20T14:00:58;98869.25;;;23.75;46.93
54900;BME280;40801;41.924;25.562;2022-11-20T14:03:29;98870.63;;;23.45;47.52
54900;BME280;40801;41.924;25.562;2022-11-20T14:06:05;98872.25;;;23.36;47.97
54900;BME280;40801;41.924;25.562;2022-11-20T14:08:41;98871.91;;;23.27;48.11
54900;BME280;40801;41.924;25.562;2022-11-20T14:11:19;98873.94;;;23.19;48.61
54900;BME280;40801;41.924;25.562;2022-11-20T14:14:02;98872.41;;;23.07;49.07
54900;BME280;40801;41.924;25.562;2022-11-20T14:16:30;98881.13;;;22.92;49.38
54900;BME280;40801;41.924;25.562;2022-11-20T14:18:57;98872.53;;;22.72;50.20
54900;BME280;40801;41.924;25.562;2022-11-20T14:21:25;98873.72;;;22.71;49.96
54900;BME280;40801;41.924;25.562;2022-11-20T14:24:06;98870.59;;;22.62;50.64
54900;BME280;40801;41.924;25.562;2022-11-20T14:26:32;98875.72;;;22.49;50.87